Time;durP1;ratioP1;P1;durP2;ratioP2;P2;SDS_P1;SDS_P2;PMS_P1;PMS_P2;Temp;Humidity;BMP_temperature;BMP_pressure;BME280_temperature;BME280_humidity;BME280_pressure;Samples;Min_cycle;Max_cycle;Signal;HPM_P1;HPM_P2
2022/09/23 00:56:45;;;;;;;22.17;12.32;;;9.10;99.90;;;;;;5133913;23;20083;-86
2022/09/23 00:59:12;;;;;;;18.83;12.02;;;9.10;99.90;;;;;;4901509;29;20044;-86
2022/09/23 01:01:38;;;;;;;24.42;12.38;;;9.10;99.90;;;;;;4901514;29;20032;-87
2022/09/23 01:04:06;;;;;;;17.85;11.60;;;9.00;99.90;;;;;;4901326;29;20103;-87
2022/09/23 02:20:48;;;;;;;;;;;;;;;;;;;;;
2022/09/23 02:50:21;;;;;;;12.67;7.73;;;8.10;99.90;;;;;;4844092;29;20134;-85
2022/09/23 02:53:11;;;;;;;14.30;8.00;;;8.00;99.90;;;;;;4852206;29;20135;-87
2022/09/23 03:06:20;;;;;;;;;;;;;;;;;;;;;
2022/09/23 03:09:22;;;;;;;13.75;8.77;;;8.00;99.90;;;;;;4880807;29;20435;-88
2022/09/23 03:12:08;;;;;;;16.20;7.95;;;8.00;99.90;;;;;;4809983;29;20479;-87
2022/09/23 03:14:58;;;;;;;15.93;7.57;;;8.00;99.90;;;;;;4809803;29;20042;-88
2022/09/23 03:17:28;;;;;;;14.73;6.95;;;8.00;99.90;;;;;;4810023;29;20364;-85
2022/09/23 03:20:03;;;;;;;17.23;7.70;;;8.00;99.90;;;;;;4809868;29;20041;-86
2022/09/23 04:15:22;;;;;;;34.92;9.32;;;7.60;99.90;;;;;;4604780;31;20043;-87
2022/09/23 04:17:51;;;;;;;27.35;10.57;;;7.60;99.90;;;;;;4612235;31;20505;-88
2022/09/23 04:20:20;;;;;;;21.27;10.00;;;7.60;99.90;;;;;;4584404;31;20139;-87
2022/09/23 04:22:46;;;;;;;20.33;10.02;;;7.50;99.90;;;;;;4584565;31;20076;-88
2022/09/23 04:25:12;;;;;;;26.85;11.77;;;7.50;99.90;;;;;;4597441;30;20066;-87
2022/09/23 04:27:38;;;;;;;21.08;11.35;;;7.50;99.90;;;;;;4648324;30;20491;-88
2022/09/23 04:30:07;;;;;;;20.38;10.23;;;7.50;99.90;;;;;;4648354;30;20142;-87
2022/09/23 04:32:33;;;;;;;27.88;9.98;;;7.40;99.90;;;;;;4648281;30;20173;-86
2022/09/23 04:39:05;;;;;;;20.45;11.02;;;7.40;99.90;;;;;;4754346;30;20115;-87
2022/09/23 04:45:56;;;;;;;;;;;;;;;;;;;;;
2022/09/23 04:48:22;;;;;;;18.83;11.13;;;7.40;99.90;;;;;;4808321;29;20069;-86
2022/09/23 04:50:48;;;;;;;27.05;12.23;;;7.40;99.90;;;;;;4823934;29;20627;-87
2022/09/23 04:53:15;;;;;;;20.92;11.48;;;7.40;99.90;;;;;;4808507;29;20054;-88
2022/09/23 04:55:42;;;;;;;24.65;12.23;;;7.40;99.90;;;;;;4808226;29;20470;-86
2022/09/23 04:58:10;;;;;;;25.98;12.93;;;7.50;99.90;;;;;;4823836;29;20038;-86
2022/09/23 05:00:36;;;;;;;23.75;12.85;;;7.60;99.90;;;;;;4807571;29;20047;-85
2022/09/23 05:03:03;;;;;;;27.48;15.18;;;7.60;99.90;;;;;;4808038;29;20034;-88
2022/09/23 05:05:30;;;;;;;26.90;15.68;;;7.60;99.90;;;;;;4808246;29;20133;-86
2022/09/23 05:07:56;;;;;;;28.88;18.42;;;7.60;99.90;;;;;;4823375;29;20080;-89
2022/09/23 05:14:44;;;;;;;;;;;;;;;;;;;;;
2022/09/23 05:24:17;;;;;;;35.17;15.65;;;8.00;99.90;;;;;;4841309;29;20025;-85
2022/09/23 05:26:43;;;;;;;35.72;15.45;;;8.00;99.90;;;;;;4825820;29;20034;-86
2022/09/23 05:29:10;;;;;;;34.95;16.77;;;8.00;99.90;;;;;;4825486;29;20037;-84
2022/09/23 05:31:36;;;;;;;37.83;19.65;;;8.10;99.90;;;;;;4824943;29;20101;-86
2022/09/23 05:34:03;;;;;;;42.20;22.92;;;8.20;99.90;;;;;;4841320;29;20482;-85
2022/09/23 05:36:32;;;;;;;57.67;30.85;;;8.30;99.90;;;;;;4825817;29;20030;-86
2022/09/23 05:38:57;;;;;;;50.40;32.38;;;8.40;99.90;;;;;;4825860;29;20153;-86
2022/09/23 05:41:25;;;;;;;53.10;32.10;;;8.50;99.90;;;;;;4826008;29;20578;-86
2022/09/23 05:43:52;;;;;;;50.55;29.58;;;8.50;99.90;;;;;;4825604;29;20061;-87
2022/09/23 05:46:22;;;;;;;40.20;24.42;;;8.60;99.90;;;;;;4825688;29;20034;-84
2022/09/23 05:48:48;;;;;;;34.88;18.83;;;8.70;99.90;;;;;;4825606;29;20038;-85
2022/09/23 05:51:16;;;;;;;46.83;21.85;;;8.80;99.90;;;;;;4840748;29;20494;-83
2022/09/23 05:53:44;;;;;;;49.00;22.77;;;8.90;99.90;;;;;;4866721;29;20481;-86
2022/09/23 05:56:11;;;;;;;54.83;26.40;;;8.90;99.90;;;;;;4881437;29;20396;-84
2022/09/23 05:58:38;;;;;;;39.25;20.50;;;9.00;99.90;;;;;;4898690;29;20028;-85
2022/09/23 06:01:30;;;;;;;33.38;18.40;;;9.10;99.90;;;;;;4898626;29;20087;-86
2022/09/23 06:04:45;;;;;;;30.88;16.52;;;9.10;99.90;;;;;;4881420;29;20465;-86
2022/09/23 06:07:32;;;;;;;42.33;19.23;;;9.30;99.90;;;;;;4857547;29;20060;-87
2022/09/23 06:09:58;;;;;;;38.20;19.13;;;9.40;99.90;;;;;;4857997;29;20537;-85
2022/09/23 06:12:24;;;;;;;34.50;16.95;;;9.50;99.90;;;;;;4858392;29;20082;-86
2022/09/23 06:14:53;;;;;;;29.85;15.93;;;9.60;99.90;;;;;;4875951;29;20097;-88
2022/09/23 06:17:19;;;;;;;29.45;15.05;;;9.70;99.90;;;;;;4861659;29;20143;-87
2022/09/23 06:19:45;;;;;;;25.98;15.48;;;9.80;99.90;;;;;;4860544;29;20116;-87
2022/09/23 06:22:10;;;;;;;25.90;14.27;;;10.00;99.90;;;;;;4861371;29;20033;-87
2022/09/23 06:24:39;;;;;;;23.85;14.55;;;10.10;99.90;;;;;;4876135;29;20058;-87
2022/09/23 06:27:05;;;;;;;27.58;14.80;;;10.20;99.90;;;;;;4861759;29;20439;-88
2022/09/23 06:29:32;;;;;;;25.02;13.90;;;10.40;99.90;;;;;;4877774;29;20091;-88
2022/09/23 06:31:58;;;;;;;29.13;14.48;;;10.50;99.90;;;;;;4861844;29;20473;-87
2022/09/23 06:34:26;;;;;;;26.98;13.15;;;10.70;99.90;;;;;;4861841;29;20037;-87
2022/09/23 06:37:22;;;;;;;24.73;12.20;;;10.80;99.90;;;;;;4860733;29;20501;-89
2022/09/23 06:39:53;;;;;;;21.25;11.95;;;11.00;99.90;;;;;;4877014;29;20115;-86
2022/09/23 06:42:22;;;;;;;22.08;11.52;;;11.20;99.90;;;;;;4890625;29;20044;-87
2022/09/23 06:44:48;;;;;;;25.42;13.52;;;11.30;99.90;;;;;;4899957;29;20033;-87
2022/09/23 06:47:38;;;;;;;18.30;10.65;;;11.50;99.90;;;;;;4900130;29;20039;-88
2022/09/23 06:51:01;;;;;;;21.38;9.82;;;11.60;99.90;;;;;;4871806;29;20111;-87
2022/09/23 06:57:21;;;;;;;17.67;7.93;;;12.00;99.90;;;;;;4893499;29;20039;-89
2022/09/23 06:59:50;;;;;;;15.88;7.65;;;12.00;99.90;;;;;;4913689;29;20032;-87
2022/09/23 07:02:21;;;;;;;11.45;7.50;;;12.10;99.90;;;;;;4899783;29;20111;-90
2022/09/23 07:07:43;;;;;;;14.15;8.35;;;12.20;99.90;;;;;;4876972;29;20041;-87
2022/09/23 07:10:17;;;;;;;12.82;7.75;;;12.20;99.90;;;;;;4861617;29;20128;-88
2022/09/23 07:12:43;;;;;;;13.20;7.88;;;12.30;99.90;;;;;;4861562;29;20045;-88
2022/09/23 07:15:10;;;;;;;12.70;7.13;;;12.40;99.90;;;;;;4862817;29;20470;-88
2022/09/23 07:17:36;;;;;;;12.27;7.60;;;12.50;99.90;;;;;;4876928;29;20136;-88
2022/09/23 07:20:03;;;;;;;14.25;7.45;;;12.60;99.90;;;;;;4876808;29;20061;-87
2022/09/23 07:22:29;;;;;;;12.35;6.75;;;12.70;99.90;;;;;;4876424;29;20037;-87
2022/09/23 07:24:55;;;;;;;15.90;7.72;;;12.80;99.90;;;;;;4878255;29;20048;-87
2022/09/23 07:27:26;;;;;;;11.75;7.13;;;12.80;99.90;;;;;;4880416;29;20032;-89
2022/09/23 07:29:52;;;;;;;12.77;7.15;;;12.90;99.90;;;;;;4880043;29;20136;-87
2022/09/23 07:32:20;;;;;;;11.63;6.53;;;13.00;99.90;;;;;;4879856;29;20509;-86
2022/09/23 07:34:47;;;;;;;11.23;6.07;;;13.00;99.90;;;;;;4880167;29;20517;-87
2022/09/23 07:37:17;;;;;;;14.18;7.32;;;13.20;99.90;;;;;;4868791;29;20045;-89
2022/09/23 07:39:43;;;;;;;11.07;6.70;;;13.20;99.90;;;;;;4861369;29;20034;-88
2022/09/23 07:42:13;;;;;;;12.25;6.50;;;13.40;99.90;;;;;;4861343;29;20045;-88
2022/09/23 07:44:42;;;;;;;12.45;6.93;;;13.50;99.90;;;;;;4889568;29;20043;-87
2022/09/23 07:47:41;;;;;;;11.18;7.40;;;13.50;99.90;;;;;;4893407;29;20057;-87
2022/09/23 07:50:13;;;;;;;13.75;7.88;;;13.50;99.90;;;;;;4893082;29;20104;-87
2022/09/23 07:52:39;;;;;;;13.50;8.63;;;13.80;99.90;;;;;;4889129;29;20036;-87
2022/09/23 07:55:05;;;;;;;12.93;7.72;;;13.90;99.90;;;;;;4902329;29;20051;-87
2022/09/23 07:57:32;;;;;;;15.40;8.65;;;13.90;99.90;;;;;;4902158;29;20028;-86
2022/09/23 07:59:59;;;;;;;15.43;8.15;;;14.10;99.90;;;;;;4919198;29;20020;-87
2022/09/23 08:02:25;;;;;;;13.55;8.10;;;14.10;99.90;;;;;;4902320;29;20040;-86
2022/09/23 08:04:53;;;;;;;14.88;8.50;;;14.10;99.90;;;;;;4902243;29;20171;-89
2022/09/23 08:07:45;;;;;;;25.38;13.65;;;14.30;99.90;;;;;;4901697;29;20040;-89
2022/09/23 08:10:11;;;;;;;22.17;12.30;;;14.30;99.90;;;;;;4842708;29;20098;-90
2022/09/23 08:12:38;;;;;;;17.75;8.90;;;14.40;99.90;;;;;;4844128;29;20050;-89
2022/09/23 08:16:15;;;;;;;12.73;8.38;;;14.40;99.90;;;;;;4845037;29;20041;-90
2022/09/23 08:18:16;;;;;;;14.40;9.10;;;14.60;99.90;;;;;;4856534;29;20136;-86
2022/09/23 08:21:01;;;;;;;12.88;7.70;;;14.70;99.90;;;;;;4860223;29;20497;-87
2022/09/23 08:23:32;;;;;;;12.85;8.10;;;14.80;99.90;;;;;;4854960;29;20117;-87
2022/09/23 08:26:05;;;;;;;12.55;6.95;;;14.90;99.90;;;;;;4826437;29;20048;-86
2022/09/23 08:28:34;;;;;;;10.60;7.13;;;15.00;99.90;;;;;;4850106;29;20041;-86
2022/09/23 08:31:00;;;;;;;15.75;6.53;;;15.20;99.90;;;;;;4860342;29;20517;-85
2022/09/23 08:33:26;;;;;;;11.65;6.45;;;15.30;99.90;;;;;;4860567;29;20037;-87
2022/09/23 08:35:57;;;;;;;13.73;7.22;;;15.40;99.90;;;;;;4845094;29;20120;-85
2022/09/23 08:38:23;;;;;;;12.88;7.43;;;15.30;99.90;;;;;;4860502;29;20101;-85
2022/09/23 08:40:49;;;;;;;11.73;7.20;;;15.50;99.90;;;;;;4845049;29;20448;-89
2022/09/23 08:43:27;;;;;;;11.90;7.43;;;15.60;99.90;;;;;;4860478;29;20057;-87
2022/09/23 08:45:56;;;;;;;12.80;6.72;;;15.70;99.90;;;;;;4844919;29;20359;-84
2022/09/23 08:48:49;;;;;;;13.27;7.32;;;15.90;99.90;;;;;;4901781;29;20123;-88
2022/09/23 08:51:28;;;;;;;9.38;6.90;;;16.10;99.90;;;;;;4901428;29;20064;-86
2022/09/23 08:53:54;;;;;;;10.75;7.43;;;16.20;99.90;;;;;;4900625;29;20032;-85
2022/09/23 08:56:44;;;;;;;13.27;7.47;;;16.20;99.90;;;;;;4917559;29;20396;-88
2022/09/23 08:59:38;;;;;;;10.30;6.93;;;16.30;99.90;;;;;;4913208;29;20046;-92
2022/09/23 09:02:37;;;;;;;9.32;6.90;;;16.30;99.90;;;;;;4918371;29;20028;-89
2022/09/23 09:05:08;;;;;;;13.85;9.15;;;16.40;98.80;;;;;;4900934;29;20115;-85
2022/09/23 09:07:37;;;;;;;10.65;7.63;;;16.50;99.90;;;;;;4917200;29;20035;-87
2022/09/23 09:10:20;;;;;;;10.10;7.40;;;16.60;99.90;;;;;;4917545;29;20460;-88
2022/09/23 09:13:00;;;;;;;15.75;9.80;;;16.80;97.80;;;;;;4917327;29;21444;-88
2022/09/23 09:15:27;;;;;;;19.40;10.98;;;16.90;99.90;;;;;;4883589;29;20032;-86
2022/09/23 09:18:01;;;;;;;14.02;7.80;;;16.90;99.90;;;;;;4887512;29;20044;-87
2022/09/23 09:20:44;;;;;;;18.73;7.45;;;17.20;99.90;;;;;;4900382;29;20036;-88
2022/09/23 09:23:46;;;;;;;11.55;8.20;;;17.30;99.90;;;;;;4900822;29;20024;-87
2022/09/23 09:26:32;;;;;;;;;;;17.40;99.20;;;;;;4888433;29;20044;-87
2022/09/23 09:29:12;;;;;;;12.00;7.60;;;17.50;93.40;;;;;;4899485;29;20006;-88
2022/09/23 09:31:46;;;;;;;11.52;7.38;;;17.70;94.60;;;;;;4900443;29;20028;-88
2022/09/23 09:34:28;;;;;;;16.05;8.10;;;17.70;93.80;;;;;;4917359;29;20036;-87
2022/09/23 09:37:06;;;;;;;10.02;6.82;;;17.80;92.70;;;;;;4900772;29;20498;-87
2022/09/23 09:39:33;;;;;;;10.57;7.22;;;17.90;86.20;;;;;;4900103;29;20028;-87
2022/09/23 09:41:59;;;;;;;14.55;7.20;;;17.90;90.00;;;;;;4900593;29;20032;-87
2022/09/23 09:44:49;;;;;;;18.65;8.00;;;18.20;86.10;;;;;;4900477;29;20060;-87
2022/09/23 09:47:50;;;;;;;16.02;8.23;;;18.40;91.20;;;;;;4917155;29;20039;-87
2022/09/23 09:50:37;;;;;;;13.60;7.53;;;18.30;85.30;;;;;;4807380;29;20077;-86
2022/09/23 09:53:22;;;;;;;11.90;7.63;;;18.30;80.00;;;;;;4803841;29;20070;-87
2022/09/23 09:56:12;;;;;;;10.40;7.30;;;18.30;81.60;;;;;;4805828;29;20103;-87
2022/09/23 09:58:48;;;;;;;10.60;7.30;;;18.50;83.10;;;;;;4822321;29;20398;-87
2022/09/23 10:01:24;;;;;;;9.07;7.28;;;18.70;81.10;;;;;;4806558;29;20046;-86
2022/09/23 10:04:00;;;;;;;10.45;7.60;;;18.80;78.50;;;;;;4821758;29;20237;-86
2022/09/23 10:06:34;;;;;;;12.32;7.10;;;18.90;74.50;;;;;;4822150;29;20548;-83
2022/09/23 10:09:03;;;;;;;9.88;7.65;;;19.00;75.60;;;;;;4822180;29;20086;-86
2022/09/23 10:11:30;;;;;;;11.90;7.88;;;19.10;74.50;;;;;;4821347;29;20098;-86
2022/09/23 10:14:01;;;;;;;9.85;7.93;;;19.10;75.40;;;;;;4803741;29;20072;-86
2022/09/23 10:16:30;;;;;;;11.80;7.53;;;19.20;72.80;;;;;;4820785;29;20138;-86
2022/09/23 10:18:59;;;;;;;9.77;7.68;;;19.20;75.20;;;;;;4822173;29;20038;-85
2022/09/23 10:21:32;;;;;;;7.88;7.00;;;19.50;72.20;;;;;;4822686;29;20074;-85
2022/09/23 10:24:00;;;;;;;10.90;7.50;;;19.60;74.90;;;;;;4822393;29;20031;-86
2022/09/23 10:26:32;;;;;;;7.28;5.63;;;19.60;70.50;;;;;;4836252;29;20068;-86
2022/09/23 10:29:00;;;;;;;;;;;19.40;69.30;;;;;;4900851;29;20036;-86
2022/09/23 10:31:31;;;;;;;10.73;5.97;;;18.90;68.10;;;;;;4900204;29;20344;-83
2022/09/23 10:34:24;;;;;;;10.43;6.43;;;19.20;73.10;;;;;;4900407;29;20115;-84
2022/09/23 10:37:12;;;;;;;7.43;5.78;;;19.20;69.10;;;;;;4888457;29;20039;-85
2022/09/23 10:48:34;;;;;;;11.15;6.70;;;20.10;62.30;;;;;;4916999;29;20035;-84
2022/09/23 10:51:03;;;;;;;10.13;5.97;;;20.10;64.00;;;;;;4917252;29;20229;-85
2022/09/23 10:53:38;;;;;;;5.93;5.32;;;20.00;61.00;;;;;;4917181;29;20508;-85
2022/09/23 10:56:30;;;;;;;8.13;5.72;;;20.30;64.20;;;;;;4900182;29;20115;-86
2022/09/23 10:58:59;;;;;;;;;;;20.60;65.90;;;;;;4917750;29;20024;-87
2022/09/23 11:01:49;;;;;;;6.63;5.97;;;20.60;59.60;;;;;;4903890;29;19986;-85
2022/09/23 11:04:53;;;;;;;8.07;6.47;;;20.60;62.40;;;;;;4904156;29;20119;-85
2022/09/23 11:07:40;;;;;;;18.92;11.63;;;20.70;58.30;;;;;;4903488;29;20028;-83
2022/09/23 11:10:09;;;;;;;9.05;6.82;;;20.90;59.60;;;;;;4903305;29;20030;-85
2022/09/23 11:13:04;;;;;;;6.70;6.03;;;20.80;55.20;;;;;;4903264;29;20408;-85
2022/09/23 11:15:48;;;;;;;9.82;7.22;;;20.90;56.10;;;;;;4920667;29;20024;-82
2022/09/23 11:18:15;;;;;;;9.18;5.88;;;21.00;55.70;;;;;;4903373;29;20052;-82
2022/09/23 11:21:06;;;;;;;10.07;6.35;;;21.10;52.50;;;;;;4920236;29;20032;-82
2022/09/23 11:23:31;;;;;;;8.60;5.55;;;21.30;54.30;;;;;;4920364;29;20067;-83
2022/09/23 11:26:06;;;;;;;13.65;6.13;;;21.30;53.60;;;;;;4920059;29;20062;-81
2022/09/23 11:28:41;;;;;;;8.85;6.95;;;21.10;51.30;;;;;;4903392;29;20037;-82
2022/09/23 11:31:36;;;;;;;5.90;4.30;;;20.70;51.90;;;;;;4920131;29;20032;-82
2022/09/23 11:34:40;;;;;;;6.47;3.97;;;21.00;50.60;;;;;;4919225;29;20080;-80
2022/09/23 11:37:13;;;;;;;10.05;5.88;;;21.10;49.00;;;;;;4917258;29;20044;-81
2022/09/23 11:40:00;;;;;;;7.97;4.75;;;21.60;52.00;;;;;;4920526;29;20107;-81
2022/09/23 11:42:44;;;;;;;8.07;7.28;;;21.50;50.90;;;;;;4920082;29;20040;-82
2022/09/23 11:45:19;;;;;;;11.73;8.60;;;21.60;52.70;;;;;;4919970;29;20031;-83
2022/09/23 11:47:56;;;;;;;9.27;8.32;;;21.80;50.90;;;;;;4902969;29;20032;-84
2022/09/23 11:50:33;;;;;;;8.73;5.22;;;21.30;54.10;;;;;;4920254;29;20416;-82
2022/09/23 11:53:06;;;;;;;6.55;5.78;;;21.30;50.60;;;;;;4919872;29;20044;-82
2022/09/23 11:55:46;;;;;;;8.82;5.13;;;21.40;49.60;;;;;;4902535;29;20423;-79
2022/09/23 11:58:24;;;;;;;8.88;5.70;;;21.00;48.70;;;;;;4902803;29;20031;-83
2022/09/23 12:01:06;;;;;;;6.82;5.40;;;20.40;51.10;;;;;;4919834;29;20095;-83
2022/09/23 12:03:45;;;;;;;22.52;5.70;;;20.60;51.60;;;;;;4902756;29;20028;-85
2022/09/23 12:06:23;;;;;;;11.43;6.47;;;21.00;51.00;;;;;;4919238;29;20046;-84
2022/09/23 12:09:03;;;;;;;7.50;4.55;;;21.10;50.40;;;;;;4919286;29;20030;-82
2022/09/23 12:11:57;;;;;;;7.88;5.22;;;21.40;49.10;;;;;;4918935;29;20368;-82
2022/09/23 12:14:27;;;;;;;7.90;5.55;;;21.20;47.40;;;;;;4902372;29;20059;-83
2022/09/23 12:17:14;;;;;;;7.93;5.70;;;21.20;50.20;;;;;;4918756;29;20099;-83
2022/09/23 12:19:58;;;;;;;7.75;4.90;;;21.30;47.90;;;;;;4918972;29;20024;-86
2022/09/23 12:22:48;;;;;;;10.55;6.10;;;21.60;48.20;;;;;;4919085;29;20024;-82
2022/09/23 12:25:44;;;;;;;8.43;3.95;;;21.60;47.20;;;;;;4902212;29;20031;-81
2022/09/23 12:28:33;;;;;;;5.65;3.85;;;21.70;45.00;;;;;;4902022;29;20024;-86
2022/09/23 12:31:01;;;;;;;4.55;4.10;;;21.60;42.40;;;;;;4903737;29;20051;-83
2022/09/23 12:33:30;;;;;;;8.10;6.53;;;21.70;44.00;;;;;;4901811;29;20028;-85
2022/09/23 12:36:05;;;;;;;5.53;4.60;;;21.80;43.60;;;;;;4918900;29;20028;-82
2022/09/23 12:38:50;;;;;;;6.03;4.93;;;21.80;44.50;;;;;;4918958;29;20074;-82
2022/09/23 12:41:25;;;;;;;4.72;3.85;;;22.00;44.40;;;;;;4919040;29;20096;-83
2022/09/23 12:44:15;;;;;;;6.05;4.10;;;22.00;41.00;;;;;;4901444;29;20039;-83
2022/09/23 12:46:45;;;;;;;5.57;4.38;;;21.90;40.90;;;;;;4918614;29;20487;-83
2022/09/23 12:49:29;;;;;;;4.93;4.05;;;;;;;;;;4901589;29;20044;-83
2022/09/23 12:52:16;;;;;;;5.50;5.00;;;22.00;44.70;;;;;;4901314;29;20048;-83
2022/09/23 12:54:48;;;;;;;10.52;6.55;;;22.20;44.10;;;;;;4918285;29;20152;-84
2022/09/23 12:57:32;;;;;;;5.85;4.80;;;22.40;45.30;;;;;;4901443;29;20044;-82
2022/09/23 13:00:13;;;;;;;5.90;4.45;;;;;;;;;;4918472;29;20024;-84
2022/09/23 13:02:39;;;;;;;5.38;4.72;;;;;;;;;;4918383;29;20024;-82
2022/09/23 13:08:07;;;;;;;7.93;4.70;;;22.30;44.60;;;;;;4918266;29;20559;-84
2022/09/23 13:10:48;;;;;;;5.10;4.03;;;22.00;45.50;;;;;;4918227;29;20028;-83
2022/09/23 13:13:30;;;;;;;5.07;4.50;;;21.80;43.80;;;;;;4918377;29;20043;-82
2022/09/23 13:16:17;;;;;;;6.00;4.25;;;22.10;45.60;;;;;;4917955;29;20028;-83
2022/09/23 13:19:22;;;;;;;7.32;4.82;;;22.30;45.30;;;;;;4901338;29;20380;-83
2022/09/23 13:21:58;;;;;;;5.72;4.43;;;22.30;44.90;;;;;;4916476;29;20046;-83
2022/09/23 13:24:25;;;;;;;4.53;3.38;;;21.00;43.30;;;;;;4918388;29;20375;-83
2022/09/23 13:27:32;;;;;;;5.80;3.60;;;20.80;43.80;;;;;;4900805;29;20212;-82
2022/09/23 13:30:06;;;;;;;6.32;3.28;;;21.00;41.30;;;;;;4917554;29;20110;-83
2022/09/23 13:32:38;;;;;;;4.60;3.85;;;21.20;44.00;;;;;;4917731;29;20035;-83
2022/09/23 13:35:13;;;;;;;;;;;21.40;44.20;;;;;;4918389;29;20472;-81
2022/09/23 13:37:48;;;;;;;7.35;4.40;;;21.50;43.60;;;;;;4901070;29;19929;-84
2022/09/23 13:40:23;;;;;;;3.50;3.10;;;21.80;45.30;;;;;;4917931;29;20028;-83
2022/09/23 13:43:03;;;;;;;4.35;3.67;;;21.60;41.80;;;;;;4918161;29;20111;-83
2022/09/23 13:45:30;;;;;;;6.97;4.18;;;21.60;41.30;;;;;;4917907;29;20111;-81
2022/09/23 13:48:06;;;;;;;4.68;3.50;;;21.60;41.50;;;;;;4900456;29;20028;-83
2022/09/23 13:50:34;;;;;;;8.00;5.00;;;21.50;43.10;;;;;;4900583;29;20060;-82
2022/09/23 13:53:05;;;;;;;5.13;4.60;;;21.50;44.70;;;;;;4900402;29;20036;-82
2022/09/23 13:55:36;;;;;;;5.05;4.50;;;21.60;44.40;;;;;;4900871;29;20039;-82
2022/09/23 13:58:24;;;;;;;7.80;5.40;;;21.70;44.70;;;;;;4917820;29;20118;-84
2022/09/23 14:00:50;;;;;;;4.85;4.07;;;21.70;43.50;;;;;;4916448;29;20047;-83
2022/09/23 14:03:31;;;;;;;10.27;4.70;;;21.60;42.30;;;;;;4917728;29;20028;-83
2022/09/23 14:05:59;;;;;;;6.13;3.90;;;21.80;41.10;;;;;;4900642;29;20039;-83
2022/09/23 14:08:26;;;;;;;3.90;3.15;;;21.50;39.10;;;;;;4900434;29;20032;-84
2022/09/23 14:10:54;;;;;;;8.68;6.38;;;21.40;39.60;;;;;;4917338;29;20115;-83
2022/09/23 14:13:23;;;;;;;7.80;4.05;;;21.20;39.10;;;;;;4917602;29;20498;-83
2022/09/23 14:15:51;;;;;;;9.13;4.05;;;21.20;41.60;;;;;;4917272;29;20088;-84
2022/09/23 14:18:38;;;;;;;7.28;3.72;;;21.00;43.20;;;;;;4917847;29;20066;-82
2022/09/23 14:21:05;;;;;;;6.80;4.40;;;21.00;40.50;;;;;;4917593;29;20039;-83
2022/09/23 14:23:31;;;;;;;9.88;3.72;;;21.20;42.90;;;;;;4900080;29;20036;-84
2022/09/23 14:25:57;;;;;;;3.10;2.80;;;21.30;40.30;;;;;;4917372;29;20483;-83
2022/09/23 14:28:26;;;;;;;6.63;3.25;;;21.20;38.10;;;;;;4900059;29;20032;-83
2022/09/23 14:30:57;;;;;;;3.45;3.15;;;20.70;39.30;;;;;;4917359;29;20036;-83
2022/09/23 14:33:32;;;;;;;4.23;2.93;;;20.70;40.80;;;;;;4917993;29;20091;-83
2022/09/23 14:36:15;;;;;;;7.07;3.55;;;20.50;38.70;;;;;;4903918;29;20032;-84
2022/09/23 14:38:50;;;;;;;6.25;4.05;;;20.20;39.40;;;;;;4920852;29;20395;-84
2022/09/23 14:41:22;;;;;;;4.35;3.15;;;20.30;41.80;;;;;;4920826;29;20447;-83
2022/09/23 14:43:57;;;;;;;8.75;4.35;;;20.20;40.50;;;;;;4921281;29;20020;-83
2022/09/23 14:46:35;;;;;;;6.50;3.33;;;20.10;40.90;;;;;;4904584;29;20099;-84
2022/09/23 14:49:16;;;;;;;7.53;2.75;;;19.90;40.50;;;;;;4903644;29;20056;-83
2022/09/23 14:51:59;;;;;;;5.47;3.30;;;19.50;40.90;;;;;;4920902;29;20091;-83
2022/09/23 14:54:36;;;;;;;3.20;2.47;;;19.30;41.80;;;;;;4903965;29;20476;-81
2022/09/23 14:57:22;;;;;;;5.82;3.05;;;19.10;43.30;;;;;;4920775;29;20047;-84
2022/09/23 14:59:54;;;;;;;7.85;3.97;;;19.00;43.00;;;;;;4920948;29;20038;-84
2022/09/23 15:02:38;;;;;;;10.25;6.43;;;18.90;43.00;;;;;;4903618;29;20040;-82
2022/09/23 15:05:16;;;;;;;15.25;11.77;;;18.70;42.90;;;;;;4920582;29;20042;-82
2022/09/23 15:07:46;;;;;;;10.43;7.07;;;18.60;43.90;;;;;;4903664;29;20065;-83
2022/09/23 15:10:22;;;;;;;8.20;4.47;;;18.60;44.20;;;;;;4920241;29;20032;-83
2022/09/23 15:12:49;;;;;;;11.38;6.82;;;18.50;44.80;;;;;;4920671;29;20036;-84
2022/09/23 15:15:16;;;;;;;7.88;5.13;;;18.40;44.60;;;;;;4920521;29;20040;-83
2022/09/23 15:17:42;;;;;;;5.50;4.03;;;18.20;44.50;;;;;;4919966;29;20056;-85
2022/09/23 15:20:20;;;;;;;6.72;4.13;;;18.20;46.80;;;;;;4920504;29;20028;-85
2022/09/23 15:22:49;;;;;;;9.15;4.55;;;18.00;46.40;;;;;;4903400;29;20036;-83
2022/09/23 15:25:30;;;;;;;9.65;4.47;;;17.90;45.20;;;;;;4920165;29;20035;-82
2022/09/23 15:28:04;;;;;;;7.55;3.72;;;17.90;46.50;;;;;;4903059;29;20036;-83
2022/09/23 15:30:30;;;;;;;3.72;2.90;;;17.90;46.80;;;;;;4903349;29;20040;-84
2022/09/23 15:32:56;;;;;;;8.98;4.00;;;17.90;46.60;;;;;;4919788;29;20046;-85
2022/09/23 15:35:26;;;;;;;7.65;3.85;;;17.90;47.30;;;;;;4903235;29;20032;-82
2022/09/23 15:37:57;;;;;;;10.38;4.97;;;17.80;46.10;;;;;;4903253;29;20115;-82
2022/09/23 15:40:29;;;;;;;5.72;2.95;;;17.70;47.30;;;;;;4920362;29;20070;-83
2022/09/23 15:42:57;;;;;;;5.90;3.25;;;17.70;46.70;;;;;;4903090;29;20486;-84
2022/09/23 15:45:36;;;;;;;6.82;3.35;;;17.70;48.20;;;;;;4919044;29;20052;-83
2022/09/23 15:48:07;;;;;;;12.90;5.40;;;17.70;48.50;;;;;;4903289;29;20059;-81
2022/09/23 15:50:34;;;;;;;17.75;8.55;;;17.50;52.40;;;;;;4920281;29;20087;-84
2022/09/23 15:53:00;;;;;;;11.60;6.05;;;17.50;54.20;;;;;;4919685;29;20107;-83
2022/09/23 15:55:26;;;;;;;14.18;7.35;;;17.40;54.10;;;;;;4919872;29;20062;-84
2022/09/23 15:57:52;;;;;;;18.05;6.85;;;17.30;54.20;;;;;;4919688;29;20028;-82
2022/09/23 16:00:18;;;;;;;16.25;8.75;;;17.30;55.70;;;;;;4919960;29;20028;-85
2022/09/23 16:02:46;;;;;;;23.63;11.27;;;17.20;54.50;;;;;;4919809;29;20032;-83
2022/09/23 16:05:17;;;;;;;23.52;13.63;;;17.10;56.30;;;;;;4919841;29;20032;-83
2022/09/23 16:07:46;;;;;;;69.13;38.60;;;17.00;55.60;;;;;;4918750;29;20096;-82
2022/09/23 16:10:11;;;;;;;83.18;52.58;;;17.00;55.30;;;;;;4901791;29;20036;-83
2022/09/23 16:12:37;;;;;;;42.67;23.42;;;16.90;55.10;;;;;;4918924;29;20036;-82
2022/09/23 16:15:09;;;;;;;35.15;21.08;;;16.90;55.70;;;;;;4918761;29;20035;-83
2022/09/23 16:17:36;;;;;;;39.00;16.63;;;16.80;59.40;;;;;;4918850;29;20504;-82
2022/09/23 16:20:02;;;;;;;46.92;24.88;;;16.70;58.30;;;;;;4918680;29;20035;-82
2022/09/23 16:22:28;;;;;;;86.50;48.10;;;16.60;59.60;;;;;;4918322;29;20032;-82
2022/09/23 16:24:54;;;;;;;101.03;52.88;;;16.50;60.30;;;;;;4918654;29;20036;-84
2022/09/23 16:27:20;;;;;;;90.07;49.53;;;16.40;60.80;;;;;;4901240;29;20084;-83
2022/09/23 16:29:45;;;;;;;83.50;45.20;;;16.40;60.20;;;;;;4918654;29;20024;-83
2022/09/23 16:32:11;;;;;;;82.80;43.75;;;16.30;60.40;;;;;;4901152;29;20032;-84
2022/09/23 16:34:37;;;;;;;89.03;43.38;;;16.20;61.10;;;;;;4901396;29;20059;-82
2022/09/23 16:37:03;;;;;;;83.55;40.17;;;16.10;62.70;;;;;;4918545;29;20024;-82
2022/09/23 16:39:29;;;;;;;76.82;36.95;;;16.00;63.60;;;;;;4918441;29;20033;-82
2022/09/23 16:41:55;;;;;;;81.68;37.08;;;15.90;62.90;;;;;;4901290;29;20478;-83
2022/09/23 16:44:21;;;;;;;80.72;36.35;;;15.80;63.90;;;;;;4918217;29;20035;-83
2022/09/23 16:46:46;;;;;;;78.78;34.92;;;15.70;63.90;;;;;;4918326;29;20028;-83
2022/09/23 16:49:12;;;;;;;71.43;31.95;;;15.60;64.10;;;;;;4918278;29;20039;-84
2022/09/23 16:51:39;;;;;;;81.25;34.97;;;15.50;65.30;;;;;;4901280;29;20028;-83
2022/09/23 16:54:10;;;;;;;88.57;41.17;;;15.30;67.20;;;;;;4918246;29;20036;-82
2022/09/23 16:56:39;;;;;;;101.03;56.67;;;15.20;67.40;;;;;;4918103;29;20024;-83
2022/09/23 16:59:05;;;;;;;107.20;64.90;;;15.10;67.30;;;;;;4900790;29;20028;-82
2022/09/23 17:04:17;;;;;;;88.88;46.72;;;15.00;69.70;;;;;;4917694;29;20039;-84
2022/09/23 17:06:51;;;;;;;85.28;46.13;;;14.90;69.70;;;;;;4901055;29;20051;-84
2022/09/23 17:09:18;;;;;;;97.25;50.53;;;14.80;70.70;;;;;;4900460;29;20078;-83
2022/09/23 17:11:47;;;;;;;108.70;56.58;;;14.70;71.10;;;;;;4917554;29;20060;-83
2022/09/23 17:14:16;;;;;;;95.88;51.30;;;14.60;71.90;;;;;;4917537;29;20032;-85
2022/09/23 17:16:43;;;;;;;85.07;46.55;;;14.50;73.00;;;;;;4900244;29;20507;-84
2022/09/23 17:19:10;;;;;;;93.47;52.55;;;14.50;75.90;;;;;;4900925;29;20028;-82
2022/09/23 17:21:36;;;;;;;105.10;52.72;;;14.40;76.70;;;;;;4900677;29;20039;-83
2022/09/23 17:24:03;;;;;;;111.80;56.42;;;14.30;79.10;;;;;;4916964;29;20085;-85
2022/09/23 17:26:29;;;;;;;114.45;60.47;;;14.30;84.70;;;;;;4917221;29;20027;-83
2022/09/23 17:28:58;;;;;;;143.52;72.40;;;14.20;87.60;;;;;;4917511;29;20039;-83
2022/09/23 17:31:24;;;;;;;172.57;87.18;;;14.20;90.60;;;;;;4900121;29;20036;-84
2022/09/23 17:33:51;;;;;;;172.68;93.65;;;14.10;93.30;;;;;;4900445;29;20384;-84
2022/09/23 17:36:17;;;;;;;163.32;87.70;;;14.10;95.50;;;;;;4917283;29;20028;-82
2022/09/23 17:38:45;;;;;;;162.95;81.00;;;14.10;99.90;;;;;;4917228;29;20099;-82
2022/09/23 17:41:12;;;;;;;179.15;82.53;;;14.00;99.90;;;;;;4917094;29;20032;-81